Time;durP1;ratioP1;P1;durP2;ratioP2;P2;SDS_P1;SDS_P2;PMS_P1;PMS_P2;Temp;Humidity;BMP_temperature;BMP_pressure;BME280_temperature;BME280_humidity;BME280_pressure;Samples;Min_cycle;Max_cycle;Signal;HPM_P1;HPM_P2
2022/11/02 00:00:23;;;;;;;14.52;3.28;;;;;;;;;;4906952;29;20045;-85
2022/11/02 00:02:49;;;;;;;12.07;2.35;;;;;;;;;;4906663;29;20079;-83
2022/11/02 00:05:15;;;;;;;12.57;2.13;;;;;;;;;;4906151;29;20543;-84
2022/11/02 00:07:41;;;;;;;9.10;1.67;;;;;;;;;;4888752;29;20050;-83
2022/11/02 00:10:09;;;;;;;13.30;2.22;;;;;;;;;;4890137;29;20301;-82
2022/11/02 00:12:35;;;;;;;10.93;2.38;;;;;;;;;;4907670;29;20067;-87
2022/11/02 00:15:01;;;;;;;10.23;2.25;;;;;;;;;;4888663;29;20148;-85
2022/11/02 00:17:28;;;;;;;8.55;1.85;;;;;;;;;;4892184;29;20052;-86
2022/11/02 00:19:54;;;;;;;9.25;1.83;;;;;;;;;;4906232;29;20068;-86
2022/11/02 00:22:20;;;;;;;6.45;1.73;;;;;;;;;;4887133;29;20056;-83
2022/11/02 00:24:46;;;;;;;9.75;2.83;;;;;;;;;;4874414;29;20045;-87
2022/11/02 00:27:15;;;;;;;9.13;2.45;;;;;;;;;;4889628;29;20142;-84
2022/11/02 00:29:41;;;;;;;11.35;2.80;;;;;;;;;;4892184;29;20408;-84
2022/11/02 00:32:07;;;;;;;5.60;1.90;;;;;;;;;;4905068;29;20224;-86
2022/11/02 00:34:33;;;;;;;4.40;1.90;;;;;;;;;;4888598;29;20079;-85
2022/11/02 00:36:59;;;;;;;4.45;1.40;;;;;;;;;;4905959;29;20047;-85
2022/11/02 00:39:25;;;;;;;7.22;1.60;;;;;;;;;;4907757;29;20123;-86
2022/11/02 00:41:51;;;;;;;9.07;1.30;;;;;;;;;;4907059;29;20040;-86
2022/11/02 00:44:17;;;;;;;9.82;1.55;;;;;;;;;;4907957;29;20044;-85
2022/11/02 00:46:43;;;;;;;14.63;2.58;;;;;;;;;;4906602;29;20063;-85
2022/11/02 00:49:09;;;;;;;8.90;1.98;;;;;;;;;;4889792;29;20052;-87
2022/11/02 00:51:35;;;;;;;5.63;1.75;;;;;;;;;;4890610;29;20055;-92
2022/11/02 00:54:01;;;;;;;10.25;1.80;;;;;;;;;;4905274;29;20047;-89
2022/11/02 00:56:27;;;;;;;11.25;2.40;;;;;;;;;;4908099;29;20080;-91
2022/11/02 00:58:54;;;;;;;9.15;2.20;;;;;;;;;;4891005;29;20044;-93
2022/11/02 01:01:20;;;;;;;4.30;1.50;;;;;;;;;;4877211;29;20036;-93
2022/11/02 01:03:46;;;;;;;7.13;1.40;;;;;;;;;;4909498;29;20047;-93
2022/11/02 01:06:13;;;;;;;5.25;1.30;;;;;;;;;;4877569;29;20044;-93
2022/11/02 01:08:40;;;;;;;6.93;1.70;;;;;;;;;;4890563;29;20060;-89
2022/11/02 01:11:24;;;;;;;8.25;1.73;;;;;;;;;;4891410;29;20052;-91
2022/11/02 01:13:53;;;;;;;;;;;;;;;;;;4893668;29;20059;-93
2022/11/02 01:16:19;;;;;;;8.55;1.98;;;;;;;;;;4905807;29;19923;-87
2022/11/02 01:18:46;;;;;;;6.75;1.20;;;;;;;;;;4909733;29;20044;-85
2022/11/02 01:21:12;;;;;;;7.03;2.22;;;;;;;;;;4895009;29;20136;-91
2022/11/02 01:23:39;;;;;;;4.45;1.17;;;;;;;;;;4909273;29;20079;-92
2022/11/02 01:26:06;;;;;;;7.38;1.25;;;;;;;;;;4911464;29;20126;-90
2022/11/02 01:28:32;;;;;;;5.15;1.65;;;;;;;;;;4914380;29;20036;-87
2022/11/02 01:30:59;;;;;;;6.40;1.30;;;;;;;;;;4893885;29;20052;-90
2022/11/02 01:33:25;;;;;;;3.63;1.20;;;;;;;;;;4892133;29;20044;-94
2022/11/02 01:35:51;;;;;;;10.32;2.05;;;;;;;;;;4876246;29;20529;-95
2022/11/02 01:38:20;;;;;;;4.35;0.98;;;;;;;;;;4879945;29;20135;-86
2022/11/02 01:40:48;;;;;;;2.35;1.13;;;;;;;;;;4899105;29;20048;-87
2022/11/02 01:43:20;;;;;;;4.35;1.65;;;;;;;;;;4894450;29;20051;-93
2022/11/02 01:45:46;;;;;;;3.50;1.15;;;;;;;;;;4894389;29;20040;-89
2022/11/02 01:48:12;;;;;;;5.18;1.23;;;;;;;;;;4890400;29;20036;-93
2022/11/02 01:50:38;;;;;;;5.60;1.27;;;;;;;;;;4878993;29;20692;-94
2022/11/02 01:53:04;;;;;;;5.13;1.25;;;;;;;;;;4912084;29;20052;-90
2022/11/02 01:55:32;;;;;;;4.85;1.20;;;;;;;;;;4893891;29;20036;-87
2022/11/02 01:58:13;;;;;;;4.55;1.00;;;;;;;;;;4889387;29;20048;-93
2022/11/02 02:00:39;;;;;;;3.85;0.80;;;;;;;;;;4867017;29;20490;-91
2022/11/02 02:03:10;;;;;;;2.28;0.77;;;;;;;;;;4908521;29;20386;-92
2022/11/02 02:05:43;;;;;;;1.10;0.82;;;;;;;;;;4907188;29;20048;-90
2022/11/02 02:08:23;;;;;;;3.05;1.05;;;;;;;;;;4893589;29;20066;-89
2022/11/02 02:10:56;;;;;;;3.83;1.02;;;;;;;;;;4906379;29;20592;-90
2022/11/02 02:13:53;;;;;;;6.85;1.20;;;;;;;;;;4886089;29;20064;-86
2022/11/02 02:16:48;;;;;;;7.20;1.00;;;;;;;;;;4887001;29;20498;-85
2022/11/02 02:19:20;;;;;;;;;;;;;;;;;;4906286;29;20533;-85
2022/11/02 02:22:12;;;;;;;2.47;0.80;;;;;;;;;;4905073;29;20049;-91
2022/11/02 02:24:49;;;;;;;2.63;1.23;;;;;;;;;;4901495;29;20521;-88
2022/11/02 02:27:17;;;;;;;4.82;1.10;;;;;;;;;;4907080;29;20068;-84
2022/11/02 02:30:02;;;;;;;6.68;1.25;;;;;;;;;;4892297;29;20135;-93
2022/11/02 02:32:38;;;;;;;2.13;0.95;;;;;;;;;;4905683;29;20048;-93
2022/11/02 02:35:27;;;;;;;6.57;1.73;;;;;;;;;;4888283;29;20402;-90
2022/11/02 02:37:55;;;;;;;4.70;1.50;;;;;;;;;;4896895;29;20044;-91
2022/11/02 02:40:46;;;;;;;6.95;2.70;;;;;;;;;;4873414;29;20079;-87
2022/11/02 02:43:15;;;;;;;8.13;2.00;;;;;;;;;;4914761;29;20052;-91
2022/11/02 02:45:41;;;;;;;5.50;1.88;;;;;;;;;;4906570;29;20505;-91
2022/11/02 02:48:13;;;;;;;3.65;1.85;;;;;;;;;;4870451;29;20500;-85
2022/11/02 02:50:47;;;;;;;6.32;1.88;;;;;;;;;;4871530;29;20581;-87
2022/11/02 02:53:14;;;;;;;5.18;1.50;;;;;;;;;;4901119;29;20055;-88
2022/11/02 02:55:45;;;;;;;3.90;1.65;;;;;;;;;;4888242;29;20386;-87
2022/11/02 02:58:24;;;;;;;6.97;2.17;;;;;;;;;;4904727;29;20052;-91
2022/11/02 03:00:51;;;;;;;6.03;1.58;;;;;;;;;;4900699;29;20418;-89
2022/11/02 03:03:23;;;;;;;5.97;2.35;;;;;;;;;;4903303;29;20045;-88
2022/11/02 03:06:00;;;;;;;9.77;2.60;;;;;;;;;;4903646;29;20036;-88
2022/11/02 03:08:26;;;;;;;16.35;2.60;;;;;;;;;;4872860;29;20052;-90
2022/11/02 03:11:01;;;;;;;8.63;2.65;;;;;;;;;;4905947;29;20060;-89
2022/11/02 03:13:37;;;;;;;11.85;2.85;;;;;;;;;;4889552;29;20068;-85
2022/11/02 03:16:37;;;;;;;8.98;2.92;;;;;;;;;;4905723;29;20048;-88
2022/11/02 03:19:18;;;;;;;7.63;2.10;;;;;;;;;;4904256;29;20139;-89
2022/11/02 03:22:23;;;;;;;13.38;2.92;;;;;;;;;;4902653;29;20406;-85
2022/11/02 03:25:07;;;;;;;11.38;2.35;;;;;;;;;;4813955;29;20049;-87
2022/11/02 03:27:33;;;;;;;;;;;;;;;;;;4870873;29;20104;-89
2022/11/02 03:30:08;;;;;;;7.47;1.88;;;;;;;;;;4891319;29;20041;-88
2022/11/02 03:32:40;;;;;;;5.85;1.48;;;;;;;;;;4906920;29;20111;-88
2022/11/02 03:35:30;;;;;;;9.90;1.55;;;;;;;;;;4889263;29;20052;-87
2022/11/02 03:38:18;;;;;;;7.82;1.52;;;;;;;;;;4871490;29;20059;-91
2022/11/02 03:40:46;;;;;;;8.52;1.58;;;;;;;;;;4888552;29;20901;-86
2022/11/02 03:43:23;;;;;;;7.28;1.77;;;;;;;;;;4892182;29;20127;-87
2022/11/02 03:45:57;;;;;;;9.63;1.30;;;;;;;;;;4906903;29;20544;-89
2022/11/02 03:48:26;;;;;;;4.10;1.05;;;;;;;;;;4908665;29;20048;-87
2022/11/02 03:50:53;;;;;;;6.93;1.73;;;;;;;;;;4903045;29;20055;-88
2022/11/02 03:53:22;;;;;;;6.07;1.15;;;;;;;;;;4906057;29;20036;-88
2022/11/02 03:55:55;;;;;;;9.77;1.38;;;;;;;;;;4915736;23;20091;-87
2022/11/02 03:58:31;;;;;;;4.20;1.20;;;;;;;;;;4867159;29;20045;-89
2022/11/02 04:00:59;;;;;;;6.60;1.30;;;;;;;;;;4873047;29;20040;-88
2022/11/02 04:03:25;;;;;;;4.85;1.00;;;;;;;;;;4874311;29;20486;-88
2022/11/02 04:05:51;;;;;;;6.50;1.00;;;;;;;;;;4890855;29;20063;-87
2022/11/02 04:08:41;;;;;;;6.63;1.23;;;;;;;;;;4877848;29;20509;-86
2022/11/02 04:16:43;;;;;;;6.90;1.60;;;;;;;;;;4868835;29;20056;-87
2022/11/02 04:19:28;;;;;;;3.30;0.82;;;;;;;;;;4893924;29;20477;-86
2022/11/02 04:27:26;;;;;;;5.47;1.13;;;;;;;;;;4885810;29;20059;-87
2022/11/02 04:29:52;;;;;;;7.43;1.50;;;;;;;;;;4896182;29;20068;-84
2022/11/02 04:35:11;;;;;;;13.25;1.83;;;;;;;;;;4895403;29;20044;-84
2022/11/02 04:40:23;;;;;;;3.95;1.38;;;;;;;;;;4876925;29;20140;-85
2022/11/02 04:42:52;;;;;;;7.38;1.27;;;;;;;;;;4891175;29;20047;-86
2022/11/02 04:45:31;;;;;;;8.13;1.42;;;;;;;;;;4877271;29;20049;-84
2022/11/02 04:48:01;;;;;;;7.97;1.73;;;;;;;;;;4892381;29;20339;-86
2022/11/02 04:50:27;;;;;;;6.93;2.33;;;;;;;;;;4886767;29;20120;-89
2022/11/02 04:52:57;;;;;;;8.98;1.42;;;;;;;;;;4891623;29;20052;-85
2022/11/02 04:55:23;;;;;;;9.90;1.75;;;;;;;;;;4890043;29;20135;-86
2022/11/02 04:57:49;;;;;;;11.95;2.03;;;;;;;;;;4890869;29;20416;-84
2022/11/02 05:00:24;;;;;;;7.40;1.25;;;;;;;;;;4894416;29;20093;-85
2022/11/02 05:02:51;;;;;;;6.75;1.42;;;;;;;;;;4871004;29;20501;-85
2022/11/02 05:05:17;;;;;;;11.15;1.40;;;;;;;;;;4889171;29;20044;-85
2022/11/02 05:07:59;;;;;;;7.88;1.50;;;;;;;;;;4882156;29;20044;-85
2022/11/02 05:10:25;;;;;;;8.07;1.70;;;;;;;;;;4887169;29;20036;-84
2022/11/02 05:12:58;;;;;;;8.93;0.98;;;;;;;;;;4862440;29;20045;-85
2022/11/02 05:15:24;;;;;;;9.68;1.92;;;;;;;;;;4892254;29;20048;-84
2022/11/02 05:18:02;;;;;;;6.68;1.50;;;;;;;;;;4896839;29;20045;-85
2022/11/02 05:20:37;;;;;;;5.40;1.23;;;;;;;;;;4885736;29;20532;-85
2022/11/02 05:23:12;;;;;;;6.93;1.73;;;;;;;;;;4877269;29;20058;-85
2022/11/02 05:25:38;;;;;;;9.65;1.67;;;;;;;;;;4875966;29;20051;-85
2022/11/02 05:28:04;;;;;;;5.65;1.70;;;;;;;;;;4888850;29;20060;-86
2022/11/02 05:30:30;;;;;;;10.75;2.17;;;;;;;;;;4893229;29;20044;-84
2022/11/02 05:32:57;;;;;;;9.32;1.98;;;;;;;;;;4895163;29;20096;-87
2022/11/02 05:35:23;;;;;;;9.65;2.13;;;;;;;;;;4850685;29;20405;-87
2022/11/02 05:37:49;;;;;;;3.60;1.48;;;;;;;;;;4855977;29;20048;-87
2022/11/02 05:40:18;;;;;;;10.48;2.08;;;;;;;;;;4861239;29;20087;-88
2022/11/02 05:42:50;;;;;;;6.97;1.63;;;;;;;;;;4893037;29;20498;-87
2022/11/02 05:45:16;;;;;;;6.50;1.67;;;;;;;;;;4875206;29;20056;-85
2022/11/02 05:47:43;;;;;;;8.65;1.63;;;;;;;;;;4922424;23;20074;-86
2022/11/02 05:50:11;;;;;;;6.32;1.60;;;;;;;;;;4895859;29;20044;-86
2022/11/02 05:52:37;;;;;;;6.00;1.42;;;;;;;;;;4931192;29;20409;-86
2022/11/02 05:55:04;;;;;;;6.07;1.80;;;;;;;;;;4929182;29;20133;-86
2022/11/02 05:57:39;;;;;;;12.80;1.80;;;;;;;;;;4887362;29;20524;-86
2022/11/02 06:00:10;;;;;;;7.05;2.30;;;;;;;;;;4927084;29;20051;-86
2022/11/02 06:02:36;;;;;;;11.05;2.78;;;;;;;;;;4928202;29;20855;-86
2022/11/02 06:05:03;;;;;;;11.18;2.20;;;;;;;;;;4897245;29;20284;-86
2022/11/02 06:07:32;;;;;;;4.03;1.50;;;;;;;;;;4923214;29;20416;-86
2022/11/02 06:09:58;;;;;;;4.85;1.60;;;;;;;;;;4881277;29;20051;-86
2022/11/02 06:12:24;;;;;;;10.70;1.92;;;;;;;;;;4931107;29;20055;-86
2022/11/02 06:14:50;;;;;;;12.45;2.65;;;;;;;;;;4913335;29;20087;-85
2022/11/02 06:17:16;;;;;;;15.95;3.58;;;;;;;;;;4914202;29;20051;-86
2022/11/02 06:19:42;;;;;;;14.93;2.65;;;;;;;;;;4930332;29;20390;-86
2022/11/02 06:22:08;;;;;;;10.65;1.80;;;;;;;;;;4896146;29;20043;-86
2022/11/02 06:24:41;;;;;;;10.50;2.13;;;;;;;;;;4913557;29;20090;-87
2022/11/02 06:27:15;;;;;;;12.60;2.75;;;;;;;;;;4931184;29;20134;-86
2022/11/02 06:29:47;;;;;;;17.05;2.65;;;;;;;;;;4913984;29;20303;-87
2022/11/02 06:32:22;;;;;;;12.82;2.92;;;;;;;;;;4930727;29;20404;-88
2022/11/02 06:35:04;;;;;;;11.63;1.98;;;;;;;;;;4913850;29;20052;-87
2022/11/02 06:37:34;;;;;;;9.07;2.17;;;;;;;;;;4912889;29;20046;-87
2022/11/02 06:40:00;;;;;;;14.40;3.40;;;;;;;;;;4925937;29;20047;-88
2022/11/02 06:42:27;;;;;;;14.43;2.65;;;;;;;;;;4928882;29;20073;-87
2022/11/02 06:44:53;;;;;;;17.75;3.13;;;;;;;;;;4930706;29;20400;-88
2022/11/02 06:47:19;;;;;;;9.77;2.53;;;;;;;;;;4896862;29;20071;-88
2022/11/02 06:49:55;;;;;;;;;;;;;;;;;;;;;
2022/11/02 06:52:30;;;;;;;12.15;2.50;;;;;;;;;;4937062;29;20058;-88
2022/11/02 06:55:02;;;;;;;12.88;2.95;;;;;;;;;;4926347;29;20134;-86
2022/11/02 06:57:41;;;;;;;18.27;2.80;;;;;;;;;;4928182;29;20048;-85
2022/11/02 07:00:17;;;;;;;11.20;2.47;;;;;;;;;;4934448;28;20057;-88
2022/11/02 07:02:44;;;;;;;13.43;2.50;;;;;;;;;;4905854;29;20058;-89
2022/11/02 07:05:10;;;;;;;10.25;2.42;;;;;;;;;;4899556;29;20476;-87
2022/11/02 07:07:36;;;;;;;12.00;2.17;;;;;;;;;;4899973;29;20032;-87
2022/11/02 07:10:03;;;;;;;9.52;2.40;;;;;;;;;;4928787;29;20134;-87
2022/11/02 07:12:31;;;;;;;12.93;2.72;;;;;;;;;;4930346;29;20047;-88
2022/11/02 07:14:58;;;;;;;6.13;1.40;;;;;;;;;;4921679;29;20409;-86
2022/11/02 07:17:24;;;;;;;12.30;1.55;;;;;;;;;;4912214;29;20055;-86
2022/11/02 07:19:59;;;;;;;9.10;1.83;;;;;;;;;;4881184;29;20036;-86
2022/11/02 07:22:31;;;;;;;16.25;2.60;;;;;;;;;;4927854;29;20404;-87
2022/11/02 07:24:57;;;;;;;9.30;2.00;;;;;;;;;;4940571;29;20055;-86
2022/11/02 07:27:23;;;;;;;15.95;2.60;;;;;;;;;;4913509;29;20127;-86
2022/11/02 07:29:53;;;;;;;12.30;2.08;;;;;;;;;;4882724;29;20767;-86
2022/11/02 07:32:19;;;;;;;11.73;2.65;;;;;;;;;;4912866;29;20047;-86
2022/11/02 07:34:45;;;;;;;13.35;2.05;;;;;;;;;;4892295;29;20043;-86
2022/11/02 07:37:11;;;;;;;12.05;2.63;;;;;;;;;;4880545;29;20075;-88
2022/11/02 07:39:37;;;;;;;7.85;1.50;;;;;;;;;;4930588;29;20123;-89
2022/11/02 07:42:03;;;;;;;11.23;1.92;;;;;;;;;;4929046;29;20056;-85
2022/11/02 07:44:29;;;;;;;5.57;1.70;;;;;;;;;;4930574;29;20400;-87
2022/11/02 07:47:00;;;;;;;11.98;2.13;;;;;;;;;;4928577;29;20086;-87
2022/11/02 07:49:26;;;;;;;8.98;1.70;;;;;;;;;;4908167;29;20110;-86
2022/11/02 07:51:52;;;;;;;11.07;2.00;;;;;;;;;;4911154;29;20075;-86
2022/11/02 07:54:18;;;;;;;6.13;2.33;;;;;;;;;;4912897;29;20134;-86
2022/11/02 07:56:51;;;;;;;13.88;2.92;;;;;;;;;;4913614;29;20050;-85
2022/11/02 07:59:17;;;;;;;16.50;2.13;;;;;;;;;;4912361;29;20046;-85
2022/11/02 08:01:46;;;;;;;8.05;1.52;;;;;;;;;;4903751;29;20079;-85
2022/11/02 08:04:12;;;;;;;10.23;2.03;;;;;;;;;;4911322;29;20060;-86
2022/11/02 08:06:47;;;;;;;9.27;1.90;;;;;;;;;;4920637;29;20495;-83
2022/11/02 08:09:20;;;;;;;10.35;1.85;;;;;;;;;;4902758;29;20158;-86
2022/11/02 08:11:46;;;;;;;13.48;2.00;;;;;;;;;;4931937;29;20058;-85
2022/11/02 08:14:12;;;;;;;8.13;1.48;;;;;;;;;;4913493;29;20069;-86
2022/11/02 08:16:38;;;;;;;12.55;1.48;;;;;;;;;;4913786;29;20058;-84
2022/11/02 08:19:04;;;;;;;9.30;1.98;;;;;;;;;;4928178;29;20509;-85
2022/11/02 08:21:30;;;;;;;12.52;1.63;;;;;;;;;;4929676;29;20067;-86
2022/11/02 08:24:11;;;;;;;12.25;1.70;;;;;;;;;;4912502;29;20138;-86
2022/11/02 08:26:37;;;;;;;6.32;1.50;;;;;;;;;;4925519;29;20142;-86
2022/11/02 08:29:07;;;;;;;11.23;2.10;;;;;;;;;;4912313;29;20044;-86
2022/11/02 08:31:40;;;;;;;6.40;1.60;;;;;;;;;;4929351;29;20051;-83
2022/11/02 08:34:06;;;;;;;5.10;1.27;;;;;;;;;;4929245;29;20051;-85
2022/11/02 08:36:35;;;;;;;11.25;1.63;;;;;;;;;;4911043;29;20550;-84
2022/11/02 08:39:01;;;;;;;8.82;1.67;;;;;;;;;;4930904;29;20067;-86
2022/11/02 08:41:27;;;;;;;13.20;1.58;;;;;;;;;;4897068;29;20048;-85
2022/11/02 08:43:53;;;;;;;10.63;1.25;;;;;;;;;;4942751;29;20044;-85
2022/11/02 08:46:19;;;;;;;9.25;1.48;;;;;;;;;;4930205;29;20496;-85
2022/11/02 08:48:48;;;;;;;9.90;1.83;;;;;;;;;;4898765;29;20047;-86
2022/11/02 08:51:14;;;;;;;8.13;1.60;;;;;;;;;;4911147;29;20048;-86
2022/11/02 08:53:49;;;;;;;9.95;1.38;;;;;;;;;;4887702;29;20047;-85
2022/11/02 08:56:27;;;;;;;9.60;2.00;;;;;;;;;;4894872;29;20060;-86
2022/11/02 08:59:03;;;;;;;9.45;1.85;;;;;;;;;;4911884;29;20044;-87
2022/11/02 09:01:29;;;;;;;7.35;1.33;;;;;;;;;;4918144;29;20044;-85
2022/11/02 09:03:58;;;;;;;9.98;1.60;;;;;;;;;;4898870;29;20080;-85
2022/11/02 09:06:24;;;;;;;7.03;1.25;;;;;;;;;;4889419;29;20075;-85
2022/11/02 09:08:50;;;;;;;9.18;1.40;;;;;;;;;;4899789;29;20048;-85
2022/11/02 09:11:16;;;;;;;7.35;1.83;;;;;;;;;;4860805;29;20051;-86
2022/11/02 09:13:55;;;;;;;9.77;1.70;;;;;;;;;;4910418;29;20067;-85
2022/11/02 09:16:27;;;;;;;6.28;1.30;;;;;;;;;;4908971;29;20139;-86
2022/11/02 09:18:59;;;;;;;6.60;1.95;;;;;;;;;;4905270;29;20047;-86
2022/11/02 09:21:28;;;;;;;10.02;1.75;;;;;;;;;;4891957;29;20044;-85
2022/11/02 09:23:54;;;;;;;8.05;1.67;;;;;;;;;;4909167;29;20528;-86
2022/11/02 09:26:20;;;;;;;7.10;2.00;;;;;;;;;;4910076;29;20531;-86
2022/11/02 09:28:47;;;;;;;4.70;1.25;;;;;;;;;;4908481;29;20051;-85
2022/11/02 09:31:13;;;;;;;12.95;2.00;;;;;;;;;;4878166;29;20054;-85
2022/11/02 09:33:39;;;;;;;9.35;2.50;;;;;;;;;;4906244;29;20095;-85
2022/11/02 09:36:06;;;;;;;10.63;1.80;;;;;;;;;;4921858;29;20048;-86
2022/11/02 09:38:32;;;;;;;7.70;1.42;;;;;;;;;;4907532;29;20123;-86
2022/11/02 09:41:20;;;;;;;12.65;1.67;;;;;;;;;;4893294;29;20036;-85
2022/11/02 09:43:46;;;;;;;18.30;2.97;;;;;;;;;;4890969;29;20044;-85
2022/11/02 09:46:16;;;;;;;12.18;2.10;;;;;;;;;;4876910;29;20046;-84
2022/11/02 09:48:48;;;;;;;13.80;2.17;;;;;;;;;;4903629;29;20044;-85
2022/11/02 09:51:15;;;;;;;7.97;1.48;;;;;;;;;;4909311;29;20071;-85
2022/11/02 09:53:46;;;;;;;10.10;2.00;;;;;;;;;;4910501;29;20047;-86
2022/11/02 09:56:13;;;;;;;11.15;2.00;;;;;;;;;;4894800;29;20591;-84
2022/11/02 09:58:40;;;;;;;18.92;2.47;;;;;;;;;;4927968;29;20163;-85
2022/11/02 10:01:15;;;;;;;11.52;2.05;;;;;;;;;;4910956;29;20067;-86
2022/11/02 10:03:56;;;;;;;10.05;2.13;;;;;;;;;;4916981;29;20048;-87
2022/11/02 10:06:23;;;;;;;11.25;2.25;;;;;;;;;;4919408;29;20118;-84
2022/11/02 10:09:02;;;;;;;15.13;2.78;;;;;;;;;;4934198;29;20056;-85
2022/11/02 10:11:32;;;;;;;11.55;2.33;;;;;;;;;;4899452;29;20055;-85
2022/11/02 10:14:00;;;;;;;17.00;2.20;;;;;;;;;;4911045;29;20501;-85
2022/11/02 10:16:29;;;;;;;17.80;2.78;;;;;;;;;;4927102;29;20118;-85
2022/11/02 10:18:55;;;;;;;19.15;2.47;;;;;;;;;;4913862;29;20050;-87
2022/11/02 10:21:36;;;;;;;12.30;2.45;;;;;;;;;;4936724;29;20055;-85
2022/11/02 10:24:24;;;;;;;14.95;2.20;;;;;;;;;;4926540;29;20047;-86
2022/11/02 10:26:53;;;;;;;10.27;2.35;;;;;;;;;;4911206;29;20547;-85
2022/11/02 10:29:26;;;;;;;11.52;2.40;;;;;;;;;;4926462;29;20570;-85
2022/11/02 10:31:52;;;;;;;15.73;3.00;;;;;;;;;;4894976;29;20043;-85
2022/11/02 10:34:28;;;;;;;9.25;1.92;;;;;;;;;;4903431;28;20031;-84
2022/11/02 10:36:54;;;;;;;13.73;2.67;;;;;;;;;;4935433;29;20051;-86
2022/11/02 10:39:49;;;;;;;19.10;2.38;;;;;;;;;;4919623;29;20130;-85
2022/11/02 10:42:31;;;;;;;13.35;2.20;;;;;;;;;;4879905;29;20068;-85
2022/11/02 10:45:17;;;;;;;13.52;1.48;;;;;;;;;;4932440;29;20389;-86
2022/11/02 10:48:02;;;;;;;19.15;2.55;;;;;;;;;;4931886;29;20746;-86
2022/11/02 10:50:53;;;;;;;12.20;1.88;;;;;;;;;;4921781;29;20399;-85
2022/11/02 10:53:20;;;;;;;13.07;1.90;;;;;;;;;;4913060;29;20123;-86
2022/11/02 10:56:01;;;;;;;9.25;2.17;;;;;;;;;;4929435;29;20031;-86
2022/11/02 10:58:33;;;;;;;9.20;1.55;;;;;;;;;;4915552;29;20400;-85
2022/11/02 11:01:10;;;;;;;10.07;1.88;;;;;;;;;;4897272;29;20044;-86
2022/11/02 11:03:57;;;;;;;11.13;2.42;;;;;;;;;;4903202;29;20059;-86
2022/11/02 11:06:24;;;;;;;10.50;2.55;;;;;;;;;;4919075;29;20051;-86
2022/11/02 11:08:57;;;;;;;11.20;2.30;;;;;;;;;;4903191;29;20051;-86
2022/11/02 11:11:25;;;;;;;14.27;2.50;;;;;;;;;;4897424;29;20060;-86
2022/11/02 11:14:03;;;;;;;8.52;1.77;;;;;;;;;;4897199;29;20504;-83
2022/11/02 11:16:50;;;;;;;15.45;1.95;;;;;;;;;;4899165;29;20059;-84
2022/11/02 11:19:35;;;;;;;6.07;1.52;;;;;;;;;;4919359;29;20610;-85
2022/11/02 11:22:02;;;;;;;10.32;2.00;;;;;;;;;;4930500;29;20039;-83
2022/11/02 11:24:29;;;;;;;8.38;1.70;;;;;;;;;;4930027;29;20047;-84
2022/11/02 11:27:14;;;;;;;13.02;2.63;;;;;;;;;;4897367;29;20044;-83
2022/11/02 11:30:12;;;;;;;15.65;2.03;;;;;;;;;;4929510;29;20150;-85
2022/11/02 11:32:47;;;;;;;12.05;1.88;;;;;;;;;;4908244;29;20420;-84
2022/11/02 11:35:16;;;;;;;12.60;2.17;;;;;;;;;;4931921;29;20127;-83
2022/11/02 11:37:51;;;;;;;13.75;1.73;;;;;;;;;;4929201;29;20051;-83
2022/11/02 11:40:21;;;;;;;9.82;1.52;;;;;;;;;;4909880;29;20063;-82
2022/11/02 11:42:57;;;;;;;7.13;1.38;;;;;;;;;;4901899;29;20124;-84
2022/11/02 11:45:26;;;;;;;10.15;1.92;;;;;;;;;;4927131;29;20040;-83
2022/11/02 11:47:54;;;;;;;7.13;1.73;;;;;;;;;;4929671;29;20465;-85
2022/11/02 11:50:20;;;;;;;8.60;1.58;;;;;;;;;;4928480;29;20076;-83
2022/11/02 11:52:46;;;;;;;17.95;2.05;;;;;;;;;;4898121;29;20044;-82
2022/11/02 11:55:26;;;;;;;11.80;1.67;;;;;;;;;;4895023;29;20493;-84
2022/11/02 11:58:17;;;;;;;12.23;1.98;;;;;;;;;;4932141;29;20627;-84
2022/11/02 12:00:43;;;;;;;13.73;2.22;;;;;;;;;;4917347;29;20141;-84
2022/11/02 12:03:10;;;;;;;14.05;2.38;;;;;;;;;;4930268;29;20266;-83
2022/11/02 12:06:02;;;;;;;8.88;1.65;;;;;;;;;;4930508;29;20579;-82
2022/11/02 12:08:36;;;;;;;7.75;2.13;;;;;;;;;;4884308;29;20059;-83
2022/11/02 12:11:29;;;;;;;8.93;1.70;;;;;;;;;;4910251;29;20052;-84
2022/11/02 12:14:04;;;;;;;9.30;1.60;;;;;;;;;;4940906;29;20043;-84
2022/11/02 12:16:51;;;;;;;12.00;1.95;;;;;;;;;;4930027;29;20040;-85
2022/11/02 12:19:54;;;;;;;11.32;2.00;;;17.30;99.90;;;;;;4911970;29;20063;-83
2022/11/02 12:22:30;;;;;;;9.75;1.70;;;;;;;;;;4910690;29;20493;-85
2022/11/02 12:24:56;;;;;;;8.70;1.50;;;;;;;;;;4930938;29;20419;-84
2022/11/02 12:27:25;;;;;;;11.93;2.10;;;;;;;;;;4911253;29;20132;-84
2022/11/02 12:30:03;;;;;;;8.23;1.30;;;;;;;;;;4913042;29;20060;-85
2022/11/02 12:32:41;;;;;;;13.02;1.65;;;;;;;;;;4929095;29;20440;-84
2022/11/02 12:35:26;;;;;;;15.45;1.85;;;;;;;;;;4896827;29;20048;-84
2022/11/02 12:38:18;;;;;;;9.30;1.75;;;17.90;99.90;;;;;;4897244;29;20039;-85
2022/11/02 12:40:44;;;;;;;9.23;1.70;;;;;;;;;;4917999;29;20039;-85
2022/11/02 12:43:29;;;;;;;8.35;1.38;;;;;;;;;;4898237;29;20437;-85
2022/11/02 12:46:04;;;;;;;9.32;1.85;;;;;;;;;;4928255;29;20043;-84
2022/11/02 12:48:54;;;;;;;6.30;1.40;;;;;;;;;;4929183;29;20473;-86
2022/11/02 12:51:27;;;;;;;8.50;1.70;;;;;;;;;;4936768;29;20191;-84
2022/11/02 12:54:03;;;;;;;6.82;1.50;;;;;;;;;;4910700;29;20090;-84
2022/11/02 12:56:37;;;;;;;8.45;1.63;;;;;;;;;;4912544;29;20062;-84
2022/11/02 12:59:03;;;;;;;5.82;1.42;;;;;;;;;;4911084;29;20106;-83
2022/11/02 13:01:39;;;;;;;9.18;1.30;;;;;;;;;;4913300;29;20118;-83
2022/11/02 13:04:05;;;;;;;11.23;1.15;;;;;;;;;;4910258;29;20067;-85
2022/11/02 13:06:35;;;;;;;9.65;1.70;;;;;;;;;;4918940;29;20083;-84
2022/11/02 13:09:05;;;;;;;8.98;1.85;;;;;;;;;;4932505;29;21638;-85
2022/11/02 13:11:37;;;;;;;11.07;1.50;;;;;;;;;;4927685;29;20146;-83
2022/11/02 13:14:05;;;;;;;10.60;1.77;;;;;;;;;;4912083;29;20084;-85
2022/11/02 13:16:40;;;;;;;5.97;1.45;;;;;;;;;;4919530;29;20051;-84
2022/11/02 13:19:12;;;;;;;8.00;1.58;;;;;;;;;;4929861;29;20421;-84
2022/11/02 13:21:42;;;;;;;7.97;1.25;;;;;;;;;;4893031;29;20098;-86
2022/11/02 13:24:15;;;;;;;14.50;2.42;;;;;;;;;;4918338;29;20056;-84
2022/11/02 13:26:42;;;;;;;7.40;1.70;;;;;;;;;;4912172;29;20390;-87
2022/11/02 13:29:15;;;;;;;9.23;1.60;;;;;;;;;;4939414;29;20488;-84
2022/11/02 13:31:44;;;;;;;7.47;1.35;;;;;;;;;;4910801;29;20047;-85
2022/11/02 13:34:28;;;;;;;9.02;1.58;;;;;;;;;;4936522;28;20082;-84
2022/11/02 13:36:58;;;;;;;;;;;;;;;;;;4911671;29;20051;-86
2022/11/02 13:39:38;;;;;;;14.48;2.25;;;;;;;;;;4893661;29;20292;-83
2022/11/02 13:42:23;;;;;;;11.25;1.80;;;;;;;;;;4925084;29;20055;-84
2022/11/02 13:45:08;;;;;;;13.52;2.38;;;;;;;;;;4929036;29;20062;-85
2022/11/02 13:47:37;;;;;;;7.13;2.10;;;;;;;;;;4905657;29;20057;-85
2022/11/02 13:50:04;;;;;;;10.48;1.90;;;;;;;;;;4909947;29;20067;-85
2022/11/02 13:52:45;;;;;;;9.52;2.40;;;;;;;;;;4905446;29;20056;-87
2022/11/02 13:55:38;;;;;;;13.55;2.22;;;;;;;;;;4876788;29;20054;-84
2022/11/02 13:58:06;;;;;;;8.18;1.65;;;;;;;;;;4906947;29;20151;-86
2022/11/02 14:00:44;;;;;;;12.20;1.63;;;;;;;;;;4877070;29;20055;-86
2022/11/02 14:03:26;;;;;;;17.77;1.90;;;;;;;;;;4909937;29;20066;-86
2022/11/02 14:05:56;;;;;;;8.68;1.38;;;;;;;;;;4909131;29;20058;-84
2022/11/02 14:08:40;;;;;;;10.52;1.65;;;;;;;;;;4877990;29;20150;-86
2022/11/02 14:11:09;;;;;;;8.60;1.70;;;;;;;;;;4903424;29;20048;-86
2022/11/02 14:13:53;;;;;;;11.68;1.90;;;;;;;;;;4876923;29;20060;-87
2022/11/02 14:16:48;;;;;;;;;;;;;;;;;;;;;
2022/11/02 14:19:18;;;;;;;7.03;2.17;;;;;;;;;;4907953;29;20064;-85
2022/11/02 14:21:52;;;;;;;8.40;1.55;;;;;;;;;;4904846;29;20054;-86
2022/11/02 14:24:34;;;;;;;19.23;1.67;;;;;;;;;;4894051;29;20504;-86
2022/11/02 14:27:06;;;;;;;14.32;2.05;;;;;;;;;;4874801;29;20052;-83
2022/11/02 14:29:43;;;;;;;13.00;2.13;;;;;;;;;;4892261;29;20347;-85
2022/11/02 14:32:18;;;;;;;11.15;1.58;;;;;;;;;;4907291;29;20062;-85
2022/11/02 14:35:03;;;;;;;7.30;1.85;;;;;;;;;;4909333;29;21107;-84
2022/11/02 14:37:39;;;;;;;11.88;2.03;;;;;;;;;;4906924;29;20048;-86
2022/11/02 14:40:20;;;;;;;8.95;1.63;;;;;;;;;;4909414;29;20048;-84
2022/11/02 14:42:52;;;;;;;8.65;1.33;;;;;;;;;;4876489;29;20122;-86
2022/11/02 14:45:23;;;;;;;6.32;1.77;;;;;;;;;;4886459;29;20044;-85
2022/11/02 14:47:55;;;;;;;7.97;1.70;;;;;;;;;;4882277;29;20058;-86
2022/11/02 14:50:22;;;;;;;11.77;2.03;;;;;;;;;;4893187;29;20043;-85
2022/11/02 14:52:57;;;;;;;8.75;1.75;;;;;;;;;;4879970;29;20047;-84
2022/11/02 14:55:25;;;;;;;12.05;1.88;;;;;;;;;;4909847;29;20750;-86
2022/11/02 14:57:55;;;;;;;8.23;1.60;;;;;;;;;;4928444;29;20050;-86
2022/11/02 15:00:41;;;;;;;7.78;1.50;;;;;;;;;;4927959;29;20055;-86
2022/11/02 15:03:13;;;;;;;11.13;2.00;;;;;;;;;;4905828;29;20056;-86
2022/11/02 15:05:40;;;;;;;10.35;1.85;;;;;;;;;;4911250;29;20497;-86
2022/11/02 15:08:09;;;;;;;11.38;2.25;;;;;;;;;;4936946;29;20044;-86
2022/11/02 15:10:36;;;;;;;15.10;2.03;;;;;;;;;;4937682;29;20051;-85
2022/11/02 15:13:17;;;;;;;14.88;2.45;;;;;;;;;;4924024;29;20055;-85
2022/11/02 15:15:50;;;;;;;8.88;1.88;;;;;;;;;;4927867;29;20048;-85
2022/11/02 15:18:23;;;;;;;12.13;1.85;;;;;;;;;;4910671;29;20091;-85
2022/11/02 15:21:08;;;;;;;10.30;2.28;;;;;;;;;;4925923;29;20050;-84
2022/11/02 15:23:52;;;;;;;8.98;2.10;;;;;;;;;;4911207;29;20065;-85
2022/11/02 15:26:19;;;;;;;13.00;2.10;;;;;;;;;;4929742;29;20102;-86